createdAt,value
2022-11-17T11:36:07.352Z,428.00
2022-11-17T11:37:08.529Z,488.00
2022-11-17T11:38:08.432Z,604.00
2022-11-17T11:39:08.748Z,736.00
2022-11-17T11:40:08.393Z,1020.00
2022-11-17T11:41:08.309Z,1184.00
2022-11-17T11:42:08.516Z,1244.00
2022-11-17T11:43:08.309Z,1248.00
2022-11-17T11:44:09.172Z,1372.00
2022-11-17T11:45:08.582Z,1468.00
2022-11-17T11:46:08.233Z,1408.00
2022-11-17T11:47:08.938Z,1308.00
2022-11-17T11:48:08.473Z,1228.00
2022-11-17T11:49:08.471Z,1284.00
2022-11-17T11:50:08.183Z,1476.00
2022-11-17T11:51:08.169Z,1760.00
2022-11-17T11:52:08.138Z,2032.00
2022-11-17T11:53:09.137Z,2132.00
2022-11-17T11:54:08.404Z,2132.00
2022-11-17T11:55:08.115Z,2284.00
2022-11-17T11:56:08.105Z,2532.00
2022-11-17T11:57:08.096Z,2408.00
2022-11-17T11:58:08.081Z,2248.00
2022-11-17T11:59:08.074Z,2124.00
2022-11-17T12:00:08.149Z,2032.00
2022-11-17T12:01:08.035Z,1844.00
2022-11-17T12:02:08.071Z,1644.00
2022-11-17T12:03:08.077Z,1516.00
2022-11-17T12:04:08.207Z,1488.00
2022-11-17T12:05:09.054Z,1580.00
2022-11-17T12:06:07.994Z,1636.00
2022-11-17T12:07:08.022Z,1708.00
2022-11-17T12:08:10.778Z,1616.00
2022-11-17T12:09:08.964Z,1576.00
2022-11-17T12:10:07.988Z,1592.00
2022-11-17T12:11:08.160Z,1528.00
2022-11-17T12:12:07.943Z,1500.00
2022-11-17T12:13:07.933Z,1512.00
2022-11-17T12:14:07.918Z,1408.00
2022-11-17T12:15:07.904Z,1260.00
2022-11-17T12:16:07.913Z,1104.00
2022-11-17T12:17:07.870Z,988.00
2022-11-17T12:18:07.858Z,1012.00
2022-11-17T12:19:07.855Z,1020.00
2022-11-17T12:20:10.931Z,1004.00
